sensor_id;sensor_type;location;lat;lon;timestamp;temperature;humidity
11894;DHT22;6006;49.696;8.662;2024-03-02T00:01:05;3.70;99.90
11894;DHT22;6006;49.696;8.662;2024-03-02T00:03:33;3.80;99.90
11894;DHT22;6006;49.696;8.662;2024-03-02T00:06:00;3.90;99.90
11894;DHT22;6006;49.696;8.662;2024-03-02T00:08:27;4.00;99.90
11894;DHT22;6006;49.696;8.662;2024-03-02T00:10:58;4.00;99.90
11894;DHT22;6006;49.696;8.662;2024-03-02T00:13:25;4.10;99.90
11894;DHT22;6006;49.696;8.662;2024-03-02T00:15:53;4.10;99.90
11894;DHT22;6006;49.696;8.662;2024-03-02T00:18:24;4.10;99.90
11894;DHT22;6006;49.696;8.662;2024-03-02T00:20:54;4.00;99.90
11894;DHT22;6006;49.696;8.662;2024-03-02T00:23:22;4.00;99.90
11894;DHT22;6006;49.696;8.662;2024-03-02T00:25:51;3.90;99.90
11894;DHT22;6006;49.696;8.662;2024-03-02T00:28:21;3.90;99.90
11894;DHT22;6006;49.696;8.662;2024-03-02T00:31:02;3.90;99.90
11894;DHT22;6006;49.696;8.662;2024-03-02T00:33:34;4.00;99.90
11894;DHT22;6006;49.696;8.662;2024-03-02T00:36:03;4.00;99.90
11894;DHT22;6006;49.696;8.662;2024-03-02T00:38:31;3.90;99.90
11894;DHT22;6006;49.696;8.662;2024-03-02T00:40:59;3.90;99.90
11894;DHT22;6006;49.696;8.662;2024-03-02T00:43:56;3.90;99.90
11894;DHT22;6006;49.696;8.662;2024-03-02T00:46:23;3.90;99.90
11894;DHT22;6006;49.696;8.662;2024-03-02T00:48:55;3.80;99.90
11894;DHT22;6006;49.696;8.662;2024-03-02T00:51:24;3.80;99.90
11894;DHT22;6006;49.696;8.662;2024-03-02T00:53:52;3.70;99.90
11894;DHT22;6006;49.696;8.662;2024-03-02T00:56:21;3.70;99.90
11894;DHT22;6006;49.696;8.662;2024-03-02T00:58:49;3.60;99.90
11894;DHT22;6006;49.696;8.662;2024-03-02T01:01:15;3.60;99.90
11894;DHT22;6006;49.696;8.662;2024-03-02T01:03:42;3.60;99.90
11894;DHT22;6006;49.696;8.662;2024-03-02T01:06:09;3.60;99.90
11894;DHT22;6006;49.696;8.662;2024-03-02T01:08:38;3.50;99.90
11894;DHT22;6006;49.696;8.662;2024-03-02T01:11:05;3.50;99.90
11894;DHT22;6006;49.696;8.662;2024-03-02T01:13:32;3.40;99.90
11894;DHT22;6006;49.696;8.662;2024-03-02T01:16:00;3.40;99.90
11894;DHT22;6006;49.696;8.662;2024-03-02T01:18:27;3.30;99.90
11894;DHT22;6006;49.696;8.662;2024-03-02T01:20:54;3.20;99.90
11894;DHT22;6006;49.696;8.662;2024-03-02T01:23:22;3.30;99.90
11894;DHT22;6006;49.696;8.662;2024-03-02T01:25:50;3.20;99.90
11894;DHT22;6006;49.696;8.662;2024-03-02T01:28:18;3.20;99.90
11894;DHT22;6006;49.696;8.662;2024-03-02T01:30:46;3.10;99.90
11894;DHT22;6006;49.696;8.662;2024-03-02T01:33:13;3.00;99.90
11894;DHT22;6006;49.696;8.662;2024-03-02T01:35:40;3.10;99.90
11894;DHT22;6006;49.696;8.662;2024-03-02T01:38:07;3.10;99.90
11894;DHT22;6006;49.696;8.662;2024-03-02T01:40:34;3.10;99.90
11894;DHT22;6006;49.696;8.662;2024-03-02T01:43:03;3.10;99.90
11894;DHT22;6006;49.696;8.662;2024-03-02T01:45:30;3.10;99.90
11894;DHT22;6006;49.696;8.662;2024-03-02T01:47:58;3.20;99.90
11894;DHT22;6006;49.696;8.662;2024-03-02T01:50:26;3.30;99.90
11894;DHT22;6006;49.696;8.662;2024-03-02T01:52:54;3.40;99.90
11894;DHT22;6006;49.696;8.662;2024-03-02T01:55:22;3.40;99.90
11894;DHT22;6006;49.696;8.662;2024-03-02T01:57:49;3.40;99.90
11894;DHT22;6006;49.696;8.662;2024-03-02T02:00:19;3.40;99.90
11894;DHT22;6006;49.696;8.662;2024-03-02T02:02:47;3.50;99.90
11894;DHT22;6006;49.696;8.662;2024-03-02T02:05:14;3.50;99.90
11894;DHT22;6006;49.696;8.662;2024-03-02T02:07:42;3.50;99.90
11894;DHT22;6006;49.696;8.662;2024-03-02T02:10:09;3.50;99.90
11894;DHT22;6006;49.696;8.662;2024-03-02T02:12:36;3.50;99.90
11894;DHT22;6006;49.696;8.662;2024-03-02T02:15:04;3.60;99.90
11894;DHT22;6006;49.696;8.662;2024-03-02T02:17:49;3.50;99.90
11894;DHT22;6006;49.696;8.662;2024-03-02T02:20:16;3.50;99.90
11894;DHT22;6006;49.696;8.662;2024-03-02T02:22:55;3.50;99.90
11894;DHT22;6006;49.696;8.662;2024-03-02T02:25:22;3.40;99.90
11894;DHT22;6006;49.696;8.662;2024-03-02T02:27:48;3.20;99.90
11894;DHT22;6006;49.696;8.662;2024-03-02T02:30:19;3.10;99.90
11894;DHT22;6006;49.696;8.662;2024-03-02T02:32:46;3.00;99.90
11894;DHT22;6006;49.696;8.662;2024-03-02T02:35:13;2.80;99.90
11894;DHT22;6006;49.696;8.662;2024-03-02T02:37:41;2.70;99.90
11894;DHT22;6006;49.696;8.662;2024-03-02T02:40:10;2.60;99.90
11894;DHT22;6006;49.696;8.662;2024-03-02T02:42:38;2.70;99.90
11894;DHT22;6006;49.696;8.662;2024-03-02T02:45:05;2.70;99.90
11894;DHT22;6006;49.696;8.662;2024-03-02T02:47:32;2.60;99.90
11894;DHT22;6006;49.696;8.662;2024-03-02T02:50:01;2.60;99.90
11894;DHT22;6006;49.696;8.662;2024-03-02T02:52:31;2.50;99.90
11894;DHT22;6006;49.696;8.662;2024-03-02T02:55:02;2.50;99.90
11894;DHT22;6006;49.696;8.662;2024-03-02T02:57:31;2.40;99.90
11894;DHT22;6006;49.696;8.662;2024-03-02T03:00:01;2.50;99.90
11894;DHT22;6006;49.696;8.662;2024-03-02T03:02:30;2.80;99.90
11894;DHT22;6006;49.696;8.662;2024-03-02T03:04:57;2.80;99.90
11894;DHT22;6006;49.696;8.662;2024-03-02T03:07:24;2.80;99.90
11894;DHT22;6006;49.696;8.662;2024-03-02T03:09:51;2.90;99.90
11894;DHT22;6006;49.696;8.662;2024-03-02T03:12:18;3.00;99.90
11894;DHT22;6006;49.696;8.662;2024-03-02T03:14:46;3.00;99.90
11894;DHT22;6006;49.696;8.662;2024-03-02T03:17:13;2.90;99.90
11894;DHT22;6006;49.696;8.662;2024-03-02T03:19:40;2.90;99.90
11894;DHT22;6006;49.696;8.662;2024-03-02T03:22:07;3.00;99.90
11894;DHT22;6006;49.696;8.662;2024-03-02T03:24:34;2.90;99.90
11894;DHT22;6006;49.696;8.662;2024-03-02T03:27:01;2.80;99.90
11894;DHT22;6006;49.696;8.662;2024-03-02T03:29:27;2.80;99.90
11894;DHT22;6006;49.696;8.662;2024-03-02T03:31:56;2.70;99.90
11894;DHT22;6006;49.696;8.662;2024-03-02T03:34:22;2.70;99.90
11894;DHT22;6006;49.696;8.662;2024-03-02T03:36:50;2.70;99.90
11894;DHT22;6006;49.696;8.662;2024-03-02T03:39:17;2.70;99.90
11894;DHT22;6006;49.696;8.662;2024-03-02T03:41:44;2.70;99.90
11894;DHT22;6006;49.696;8.662;2024-03-02T03:44:11;2.50;99.90
11894;DHT22;6006;49.696;8.662;2024-03-02T03:46:38;2.40;99.90
11894;DHT22;6006;49.696;8.662;2024-03-02T03:49:06;2.40;99.90
11894;DHT22;6006;49.696;8.662;2024-03-02T03:51:33;2.30;99.90
11894;DHT22;6006;49.696;8.662;2024-03-02T03:54:01;2.40;99.90
11894;DHT22;6006;49.696;8.662;2024-03-02T03:56:27;2.40;99.90
11894;DHT22;6006;49.696;8.662;2024-03-02T03:58:54;2.30;99.90
11894;DHT22;6006;49.696;8.662;2024-03-02T04:01:21;2.30;99.90
11894;DHT22;6006;49.696;8.662;2024-03-02T04:03:48;2.20;99.90
11894;DHT22;6006;49.696;8.662;2024-03-02T04:06:17;2.10;99.90
11894;DHT22;6006;49.696;8.662;2024-03-02T04:08:43;2.10;99.90
11894;DHT22;6006;49.696;8.662;2024-03-02T04:11:10;2.00;99.90
11894;DHT22;6006;49.696;8.662;2024-03-02T04:13:37;2.00;99.90
11894;DHT22;6006;49.696;8.662;2024-03-02T04:16:05;2.10;99.90
11894;DHT22;6006;49.696;8.662;2024-03-02T04:18:32;2.10;99.90
11894;DHT22;6006;49.696;8.662;2024-03-02T04:20:59;2.10;99.90
11894;DHT22;6006;49.696;8.662;2024-03-02T04:23:27;2.20;99.90
11894;DHT22;6006;49.696;8.662;2024-03-02T04:25:54;2.40;99.90
11894;DHT22;6006;49.696;8.662;2024-03-02T04:28:21;2.40;99.90
11894;DHT22;6006;49.696;8.662;2024-03-02T04:30:47;2.50;99.90
11894;DHT22;6006;49.696;8.662;2024-03-02T04:33:14;2.60;99.90
11894;DHT22;6006;49.696;8.662;2024-03-02T04:35:41;2.60;99.90
11894;DHT22;6006;49.696;8.662;2024-03-02T04:38:08;2.60;99.90
11894;DHT22;6006;49.696;8.662;2024-03-02T04:40:36;2.60;99.90
11894;DHT22;6006;49.696;8.662;2024-03-02T04:43:03;2.70;99.90
11894;DHT22;6006;49.696;8.662;2024-03-02T04:45:30;2.80;99.90
11894;DHT22;6006;49.696;8.662;2024-03-02T04:47:57;2.80;99.90
11894;DHT22;6006;49.696;8.662;2024-03-02T04:50:24;2.80;99.90
11894;DHT22;6006;49.696;8.662;2024-03-02T04:52:51;2.80;99.90
11894;DHT22;6006;49.696;8.662;2024-03-02T04:55:18;2.80;99.90
11894;DHT22;6006;49.696;8.662;2024-03-02T04:58:12;2.70;99.90
11894;DHT22;6006;49.696;8.662;2024-03-02T05:00:39;2.60;99.90
11894;DHT22;6006;49.696;8.662;2024-03-02T05:03:06;2.60;99.90
11894;DHT22;6006;49.696;8.662;2024-03-02T05:05:32;2.70;99.90
11894;DHT22;6006;49.696;8.662;2024-03-02T05:08:00;2.80;99.90
11894;DHT22;6006;49.696;8.662;2024-03-02T05:10:28;2.90;99.90
11894;DHT22;6006;49.696;8.662;2024-03-02T05:12:55;2.80;99.90
11894;DHT22;6006;49.696;8.662;2024-03-02T05:15:24;2.70;99.90
11894;DHT22;6006;49.696;8.662;2024-03-02T05:17:50;2.60;99.90
11894;DHT22;6006;49.696;8.662;2024-03-02T05:20:18;2.60;99.90
11894;DHT22;6006;49.696;8.662;2024-03-02T05:22:45;2.50;99.90
11894;DHT22;6006;49.696;8.662;2024-03-02T05:25:12;2.40;99.90
11894;DHT22;6006;49.696;8.662;2024-03-02T05:27:39;2.30;99.90
11894;DHT22;6006;49.696;8.662;2024-03-02T05:30:08;2.30;99.90
11894;DHT22;6006;49.696;8.662;2024-03-02T05:32:37;2.30;99.90
11894;DHT22;6006;49.696;8.662;2024-03-02T05:35:05;2.20;99.90
11894;DHT22;6006;49.696;8.662;2024-03-02T05:37:32;2.10;99.90
11894;DHT22;6006;49.696;8.662;2024-03-02T05:39:59;2.00;99.90
11894;DHT22;6006;49.696;8.662;2024-03-02T05:42:26;1.90;99.90
11894;DHT22;6006;49.696;8.662;2024-03-02T05:44:53;1.90;99.90
11894;DHT22;6006;49.696;8.662;2024-03-02T05:47:20;1.90;99.90
11894;DHT22;6006;49.696;8.662;2024-03-02T05:49:49;1.90;99.90
11894;DHT22;6006;49.696;8.662;2024-03-02T05:52:15;1.70;99.90
11894;DHT22;6006;49.696;8.662;2024-03-02T05:54:42;1.70;99.90
11894;DHT22;6006;49.696;8.662;2024-03-02T05:57:09;1.60;99.90
11894;DHT22;6006;49.696;8.662;2024-03-02T05:59:59;1.60;99.90
11894;DHT22;6006;49.696;8.662;2024-03-02T06:02:26;1.60;99.90
11894;DHT22;6006;49.696;8.662;2024-03-02T06:04:56;1.50;99.90
11894;DHT22;6006;49.696;8.662;2024-03-02T06:07:23;1.50;99.90
11894;DHT22;6006;49.696;8.662;2024-03-02T06:09:50;1.50;99.90
11894;DHT22;6006;49.696;8.662;2024-03-02T06:12:18;1.50;99.90
11894;DHT22;6006;49.696;8.662;2024-03-02T06:14:45;1.60;99.90
11894;DHT22;6006;49.696;8.662;2024-03-02T06:17:12;1.60;99.90
11894;DHT22;6006;49.696;8.662;2024-03-02T06:19:39;1.60;99.90
11894;DHT22;6006;49.696;8.662;2024-03-02T06:22:07;1.70;99.90
11894;DHT22;6006;49.696;8.662;2024-03-02T06:24:36;1.70;99.90
11894;DHT22;6006;49.696;8.662;2024-03-02T06:27:03;1.70;99.90
11894;DHT22;6006;49.696;8.662;2024-03-02T06:29:32;1.70;99.90
11894;DHT22;6006;49.696;8.662;2024-03-02T06:31:59;1.70;99.90
11894;DHT22;6006;49.696;8.662;2024-03-02T06:34:26;1.70;99.90
11894;DHT22;6006;49.696;8.662;2024-03-02T06:36:53;1.70;99.90
11894;DHT22;6006;49.696;8.662;2024-03-02T06:39:21;1.80;99.90
11894;DHT22;6006;49.696;8.662;2024-03-02T06:41:48;1.80;99.90
11894;DHT22;6006;49.696;8.662;2024-03-02T06:44:15;1.80;99.90
11894;DHT22;6006;49.696;8.662;2024-03-02T06:46:42;1.80;99.90
11894;DHT22;6006;49.696;8.662;2024-03-02T06:49:09;1.80;99.90
11894;DHT22;6006;49.696;8.662;2024-03-02T06:51:36;1.80;99.90
11894;DHT22;6006;49.696;8.662;2024-03-02T06:54:03;1.90;99.90
11894;DHT22;6006;49.696;8.662;2024-03-02T06:56:32;1.90;99.90
11894;DHT22;6006;49.696;8.662;2024-03-02T06:58:59;2.00;99.90
11894;DHT22;6006;49.696;8.662;2024-03-02T07:01:26;2.00;99.90
11894;DHT22;6006;49.696;8.662;2024-03-02T07:03:53;2.10;99.90
11894;DHT22;6006;49.696;8.662;2024-03-02T07:06:20;2.10;99.90
11894;DHT22;6006;49.696;8.662;2024-03-02T07:08:47;2.20;99.90
11894;DHT22;6006;49.696;8.662;2024-03-02T07:11:14;2.30;99.90
11894;DHT22;6006;49.696;8.662;2024-03-02T07:13:42;2.30;99.90
11894;DHT22;6006;49.696;8.662;2024-03-02T07:16:09;2.30;99.90
11894;DHT22;6006;49.696;8.662;2024-03-02T07:18:54;2.50;99.90
11894;DHT22;6006;49.696;8.662;2024-03-02T07:21:22;2.50;99.90
11894;DHT22;6006;49.696;8.662;2024-03-02T07:23:49;2.40;99.90
11894;DHT22;6006;49.696;8.662;2024-03-02T07:26:16;2.50;99.90
11894;DHT22;6006;49.696;8.662;2024-03-02T07:28:46;2.50;99.90
11894;DHT22;6006;49.696;8.662;2024-03-02T07:31:14;2.40;99.90
11894;DHT22;6006;49.696;8.662;2024-03-02T07:33:41;2.20;99.90
11894;DHT22;6006;49.696;8.662;2024-03-02T07:36:08;2.20;99.90
11894;DHT22;6006;49.696;8.662;2024-03-02T07:38:35;2.20;99.90
11894;DHT22;6006;49.696;8.662;2024-03-02T07:41:02;2.30;99.90
11894;DHT22;6006;49.696;8.662;2024-03-02T07:43:30;2.40;99.90
11894;DHT22;6006;49.696;8.662;2024-03-02T07:46:00;2.50;99.90
11894;DHT22;6006;49.696;8.662;2024-03-02T07:48:28;2.60;99.90
11894;DHT22;6006;49.696;8.662;2024-03-02T07:50:57;2.80;99.90
11894;DHT22;6006;49.696;8.662;2024-03-02T07:53:24;3.10;99.90
11894;DHT22;6006;49.696;8.662;2024-03-02T07:55:51;3.50;99.90
11894;DHT22;6006;49.696;8.662;2024-03-02T07:58:18;3.90;99.90
11894;DHT22;6006;49.696;8.662;2024-03-02T08:00:45;4.10;99.90
11894;DHT22;6006;49.696;8.662;2024-03-02T08:03:14;4.20;99.90
11894;DHT22;6006;49.696;8.662;2024-03-02T08:05:41;4.20;99.90
11894;DHT22;6006;49.696;8.662;2024-03-02T08:08:08;4.50;99.90
11894;DHT22;6006;49.696;8.662;2024-03-02T08:13:05;5.20;99.90
11894;DHT22;6006;49.696;8.662;2024-03-02T08:15:32;5.70;99.90
11894;DHT22;6006;49.696;8.662;2024-03-02T08:17:59;5.80;27.30
11894;DHT22;6006;49.696;8.662;2024-03-02T08:20:27;6.10;1.00
11894;DHT22;6006;49.696;8.662;2024-03-02T08:22:54;6.40;1.00
11894;DHT22;6006;49.696;8.662;2024-03-02T08:25:21;6.70;99.90
11894;DHT22;6006;49.696;8.662;2024-03-02T08:27:48;6.90;1.00
11894;DHT22;6006;49.696;8.662;2024-03-02T08:30:15;7.20;1.00
11894;DHT22;6006;49.696;8.662;2024-03-02T08:32:43;7.50;14.00
11894;DHT22;6006;49.696;8.662;2024-03-02T08:35:10;7.60;99.90
11894;DHT22;6006;49.696;8.662;2024-03-02T08:37:39;7.80;1.00
11894;DHT22;6006;49.696;8.662;2024-03-02T08:40:07;7.80;1.00
11894;DHT22;6006;49.696;8.662;2024-03-02T08:42:34;7.80;99.90
11894;DHT22;6006;49.696;8.662;2024-03-02T08:45:02;7.90;99.90
11894;DHT22;6006;49.696;8.662;2024-03-02T08:47:28;8.00;99.90
11894;DHT22;6006;49.696;8.662;2024-03-02T08:49:55;8.10;1.00
11894;DHT22;6006;49.696;8.662;2024-03-02T08:52:22;8.40;99.90
11894;DHT22;6006;49.696;8.662;2024-03-02T08:54:50;8.50;99.90
11894;DHT22;6006;49.696;8.662;2024-03-02T08:57:17;8.80;1.00
11894;DHT22;6006;49.696;8.662;2024-03-02T08:59:44;9.20;1.00
11894;DHT22;6006;49.696;8.662;2024-03-02T09:02:11;9.50;1.00
11894;DHT22;6006;49.696;8.662;2024-03-02T09:04:38;10.00;1.00
11894;DHT22;6006;49.696;8.662;2024-03-02T09:07:05;10.30;99.90
11894;DHT22;6006;49.696;8.662;2024-03-02T09:09:32;10.60;99.90
11894;DHT22;6006;49.696;8.662;2024-03-02T09:12:01;10.70;99.90
11894;DHT22;6006;49.696;8.662;2024-03-02T09:14:28;10.90;99.90
11894;DHT22;6006;49.696;8.662;2024-03-02T09:16:55;11.10;99.90
11894;DHT22;6006;49.696;8.662;2024-03-02T09:19:22;11.30;99.90
11894;DHT22;6006;49.696;8.662;2024-03-02T09:21:49;11.50;99.90
11894;DHT22;6006;49.696;8.662;2024-03-02T09:24:16;11.80;99.90
11894;DHT22;6006;49.696;8.662;2024-03-02T09:26:43;12.00;99.90
11894;DHT22;6006;49.696;8.662;2024-03-02T09:29:11;12.40;99.90
11894;DHT22;6006;49.696;8.662;2024-03-02T09:31:39;12.70;99.90
11894;DHT22;6006;49.696;8.662;2024-03-02T09:34:06;12.30;99.90
11894;DHT22;6006;49.696;8.662;2024-03-02T09:36:33;12.00;99.90
11894;DHT22;6006;49.696;8.662;2024-03-02T09:39:00;12.30;99.90
11894;DHT22;6006;49.696;8.662;2024-03-02T09:41:29;12.40;99.90
11894;DHT22;6006;49.696;8.662;2024-03-02T09:43:56;12.60;99.90
11894;DHT22;6006;49.696;8.662;2024-03-02T09:46:25;12.80;99.90
11894;DHT22;6006;49.696;8.662;2024-03-02T09:48:52;12.40;99.90
11894;DHT22;6006;49.696;8.662;2024-03-02T09:51:20;12.30;99.90
11894;DHT22;6006;49.696;8.662;2024-03-02T09:53:47;11.60;99.90
11894;DHT22;6006;49.696;8.662;2024-03-02T09:56:14;11.70;99.90
11894;DHT22;6006;49.696;8.662;2024-03-02T09:58:44;12.00;99.90
11894;DHT22;6006;49.696;8.662;2024-03-02T10:01:11;12.60;99.90
11894;DHT22;6006;49.696;8.662;2024-03-02T10:03:39;13.20;99.90
11894;DHT22;6006;49.696;8.662;2024-03-02T10:06:19;13.80;99.90
11894;DHT22;6006;49.696;8.662;2024-03-02T10:08:46;13.20;99.90
11894;DHT22;6006;49.696;8.662;2024-03-02T10:11:25;13.10;99.90
11894;DHT22;6006;49.696;8.662;2024-03-02T10:14:04;13.50;99.90
11894;DHT22;6006;49.696;8.662;2024-03-02T10:16:34;14.20;99.90
11894;DHT22;6006;49.696;8.662;2024-03-02T10:19:15;14.80;99.90
11894;DHT22;6006;49.696;8.662;2024-03-02T10:21:42;15.50;99.90
11894;DHT22;6006;49.696;8.662;2024-03-02T10:24:09;15.50;99.90
11894;DHT22;6006;49.696;8.662;2024-03-02T10:26:36;15.70;99.90
11894;DHT22;6006;49.696;8.662;2024-03-02T10:29:04;15.30;99.90
11894;DHT22;6006;49.696;8.662;2024-03-02T10:31:30;15.90;99.90
11894;DHT22;6006;49.696;8.662;2024-03-02T10:33:58;16.50;99.90
11894;DHT22;6006;49.696;8.662;2024-03-02T10:36:28;16.90;99.90
11894;DHT22;6006;49.696;8.662;2024-03-02T10:38:56;16.70;99.90
11894;DHT22;6006;49.696;8.662;2024-03-02T10:41:26;15.80;99.90
11894;DHT22;6006;49.696;8.662;2024-03-02T10:43:53;16.10;99.90
11894;DHT22;6006;49.696;8.662;2024-03-02T10:46:27;16.10;99.90
11894;DHT22;6006;49.696;8.662;2024-03-02T10:48:55;16.00;99.90
11894;DHT22;6006;49.696;8.662;2024-03-02T10:51:24;15.50;99.90
11894;DHT22;6006;49.696;8.662;2024-03-02T10:53:52;16.60;99.90
11894;DHT22;6006;49.696;8.662;2024-03-02T10:56:24;16.00;99.90
11894;DHT22;6006;49.696;8.662;2024-03-02T10:58:59;15.20;99.90
11894;DHT22;6006;49.696;8.662;2024-03-02T11:01:29;15.60;99.90
11894;DHT22;6006;49.696;8.662;2024-03-02T11:03:58;15.00;99.90
11894;DHT22;6006;49.696;8.662;2024-03-02T11:06:28;15.50;99.90
11894;DHT22;6006;49.696;8.662;2024-03-02T11:09:00;15.60;99.90
11894;DHT22;6006;49.696;8.662;2024-03-02T11:11:36;15.10;99.90
11894;DHT22;6006;49.696;8.662;2024-03-02T11:14:04;14.90;99.90
11894;DHT22;6006;49.696;8.662;2024-03-02T11:16:36;15.50;99.90
11894;DHT22;6006;49.696;8.662;2024-03-02T11:19:05;15.80;99.90
11894;DHT22;6006;49.696;8.662;2024-03-02T11:21:33;15.90;99.90
11894;DHT22;6006;49.696;8.662;2024-03-02T11:24:28;15.60;99.90
11894;DHT22;6006;49.696;8.662;2024-03-02T11:26:58;15.90;99.90
11894;DHT22;6006;49.696;8.662;2024-03-02T11:29:43;15.90;99.90
11894;DHT22;6006;49.696;8.662;2024-03-02T11:32:19;15.70;99.90
11894;DHT22;6006;49.696;8.662;2024-03-02T11:34:48;15.50;99.90
11894;DHT22;6006;49.696;8.662;2024-03-02T11:37:16;16.00;99.90
11894;DHT22;6006;49.696;8.662;2024-03-02T11:39:45;16.20;99.90
11894;DHT22;6006;49.696;8.662;2024-03-02T11:42:12;15.80;99.90
11894;DHT22;6006;49.696;8.662;2024-03-02T11:44:42;15.90;99.90
11894;DHT22;6006;49.696;8.662;2024-03-02T11:47:12;15.90;99.90
11894;DHT22;6006;49.696;8.662;2024-03-02T11:49:44;16.50;99.90
11894;DHT22;6006;49.696;8.662;2024-03-02T11:52:12;16.70;99.90
11894;DHT22;6006;49.696;8.662;2024-03-02T11:54:41;17.30;99.90
11894;DHT22;6006;49.696;8.662;2024-03-02T11:57:14;16.60;99.90
11894;DHT22;6006;49.696;8.662;2024-03-02T11:59:41;16.10;99.90
11894;DHT22;6006;49.696;8.662;2024-03-02T12:02:15;16.80;99.90
11894;DHT22;6006;49.696;8.662;2024-03-02T12:04:42;17.80;99.90
11894;DHT22;6006;49.696;8.662;2024-03-02T12:07:11;18.00;99.90
11894;DHT22;6006;49.696;8.662;2024-03-02T12:09:38;18.40;99.90
11894;DHT22;6006;49.696;8.662;2024-03-02T12:12:06;17.90;99.90
11894;DHT22;6006;49.696;8.662;2024-03-02T12:14:35;18.30;99.90
11894;DHT22;6006;49.696;8.662;2024-03-02T12:17:03;17.70;99.90
11894;DHT22;6006;49.696;8.662;2024-03-02T12:19:30;17.10;99.90
11894;DHT22;6006;49.696;8.662;2024-03-02T12:21:57;17.80;99.90
11894;DHT22;6006;49.696;8.662;2024-03-02T12:24:26;17.50;99.90
11894;DHT22;6006;49.696;8.662;2024-03-02T12:26:54;17.40;99.90
11894;DHT22;6006;49.696;8.662;2024-03-02T12:29:21;17.40;99.90
11894;DHT22;6006;49.696;8.662;2024-03-02T12:31:51;17.50;99.90
11894;DHT22;6006;49.696;8.662;2024-03-02T12:34:19;18.50;99.90
11894;DHT22;6006;49.696;8.662;2024-03-02T12:36:46;17.60;99.90
11894;DHT22;6006;49.696;8.662;2024-03-02T12:39:15;18.10;99.90
11894;DHT22;6006;49.696;8.662;2024-03-02T12:41:42;17.80;99.90
11894;DHT22;6006;49.696;8.662;2024-03-02T12:44:09;17.20;99.90
11894;DHT22;6006;49.696;8.662;2024-03-02T12:46:36;17.20;99.90
11894;DHT22;6006;49.696;8.662;2024-03-02T12:49:09;18.10;99.90
11894;DHT22;6006;49.696;8.662;2024-03-02T12:51:37;19.10;99.90
11894;DHT22;6006;49.696;8.662;2024-03-02T12:54:06;20.20;99.90
11894;DHT22;6006;49.696;8.662;2024-03-02T12:56:33;19.10;99.90
11894;DHT22;6006;49.696;8.662;2024-03-02T12:59:00;19.00;99.90
11894;DHT22;6006;49.696;8.662;2024-03-02T13:01:27;18.70;99.90
11894;DHT22;6006;49.696;8.662;2024-03-02T13:03:54;18.30;99.90
11894;DHT22;6006;49.696;8.662;2024-03-02T13:06:24;19.10;99.90
11894;DHT22;6006;49.696;8.662;2024-03-02T13:08:53;20.40;99.90
11894;DHT22;6006;49.696;8.662;2024-03-02T13:11:21;18.40;99.90
11894;DHT22;6006;49.696;8.662;2024-03-02T13:13:49;18.80;99.90
11894;DHT22;6006;49.696;8.662;2024-03-02T13:16:16;20.20;99.90
11894;DHT22;6006;49.696;8.662;2024-03-02T13:18:44;20.00;99.90
11894;DHT22;6006;49.696;8.662;2024-03-02T13:21:11;20.80;99.90
11894;DHT22;6006;49.696;8.662;2024-03-02T13:23:40;21.20;99.90
11894;DHT22;6006;49.696;8.662;2024-03-02T13:26:07;21.70;99.90
11894;DHT22;6006;49.696;8.662;2024-03-02T13:28:36;22.30;99.90
11894;DHT22;6006;49.696;8.662;2024-03-02T13:31:04;21.80;99.90
11894;DHT22;6006;49.696;8.662;2024-03-02T13:33:31;20.20;99.90
11894;DHT22;6006;49.696;8.662;2024-03-02T13:35:58;19.40;99.90
11894;DHT22;6006;49.696;8.662;2024-03-02T13:38:25;19.40;99.90
11894;DHT22;6006;49.696;8.662;2024-03-02T13:40:53;18.70;99.90
11894;DHT22;6006;49.696;8.662;2024-03-02T13:43:21;19.50;99.90
11894;DHT22;6006;49.696;8.662;2024-03-02T13:45:49;19.50;99.90
11894;DHT22;6006;49.696;8.662;2024-03-02T13:48:17;19.40;99.90
11894;DHT22;6006;49.696;8.662;2024-03-02T13:50:44;19.20;99.90
11894;DHT22;6006;49.696;8.662;2024-03-02T13:53:12;19.20;99.90
11894;DHT22;6006;49.696;8.662;2024-03-02T13:55:39;19.20;99.90
11894;DHT22;6006;49.696;8.662;2024-03-02T13:58:09;19.20;99.90
11894;DHT22;6006;49.696;8.662;2024-03-02T14:00:37;19.50;99.90
11894;DHT22;6006;49.696;8.662;2024-03-02T14:03:05;18.80;99.90
11894;DHT22;6006;49.696;8.662;2024-03-02T14:05:33;18.60;99.90
11894;DHT22;6006;49.696;8.662;2024-03-02T14:08:00;19.30;99.90
11894;DHT22;6006;49.696;8.662;2024-03-02T14:10:27;19.00;99.90
11894;DHT22;6006;49.696;8.662;2024-03-02T14:12:54;19.10;99.90
11894;DHT22;6006;49.696;8.662;2024-03-02T14:15:23;18.60;99.90
11894;DHT22;6006;49.696;8.662;2024-03-02T14:17:50;18.40;99.90
11894;DHT22;6006;49.696;8.662;2024-03-02T14:20:17;18.60;99.90
11894;DHT22;6006;49.696;8.662;2024-03-02T14:22:48;18.90;99.90
11894;DHT22;6006;49.696;8.662;2024-03-02T14:25:15;19.00;99.90
11894;DHT22;6006;49.696;8.662;2024-03-02T14:27:42;19.10;99.90
11894;DHT22;6006;49.696;8.662;2024-03-02T14:30:09;19.50;99.90
11894;DHT22;6006;49.696;8.662;2024-03-02T14:32:38;19.30;99.90
11894;DHT22;6006;49.696;8.662;2024-03-02T14:35:05;18.60;99.90
11894;DHT22;6006;49.696;8.662;2024-03-02T14:37:35;17.60;99.90
11894;DHT22;6006;49.696;8.662;2024-03-02T14:40:02;18.10;99.90
11894;DHT22;6006;49.696;8.662;2024-03-02T14:42:32;17.90;99.90
11894;DHT22;6006;49.696;8.662;2024-03-02T14:44:59;17.90;99.90
11894;DHT22;6006;49.696;8.662;2024-03-02T14:47:28;17.80;99.90
11894;DHT22;6006;49.696;8.662;2024-03-02T14:49:56;17.60;99.90
11894;DHT22;6006;49.696;8.662;2024-03-02T14:52:23;17.80;99.90
11894;DHT22;6006;49.696;8.662;2024-03-02T14:54:50;17.70;99.90
11894;DHT22;6006;49.696;8.662;2024-03-02T14:57:17;17.60;99.90
11894;DHT22;6006;49.696;8.662;2024-03-02T14:59:44;17.60;99.90
11894;DHT22;6006;49.696;8.662;2024-03-02T15:02:11;17.40;99.90
11894;DHT22;6006;49.696;8.662;2024-03-02T15:04:38;17.10;99.90
11894;DHT22;6006;49.696;8.662;2024-03-02T15:07:06;17.30;99.90
11894;DHT22;6006;49.696;8.662;2024-03-02T15:09:33;17.80;99.90
11894;DHT22;6006;49.696;8.662;2024-03-02T15:12:01;18.20;99.90
11894;DHT22;6006;49.696;8.662;2024-03-02T15:14:28;18.40;99.90
11894;DHT22;6006;49.696;8.662;2024-03-02T15:16:55;18.40;99.90
11894;DHT22;6006;49.696;8.662;2024-03-02T15:19:22;18.40;99.90
11894;DHT22;6006;49.696;8.662;2024-03-02T15:21:49;18.80;99.90
11894;DHT22;6006;49.696;8.662;2024-03-02T15:24:17;19.00;99.90
11894;DHT22;6006;49.696;8.662;2024-03-02T15:26:44;18.90;99.90
11894;DHT22;6006;49.696;8.662;2024-03-02T15:29:11;18.20;99.90
11894;DHT22;6006;49.696;8.662;2024-03-02T15:31:38;17.70;99.90
11894;DHT22;6006;49.696;8.662;2024-03-02T15:34:05;17.60;99.90
11894;DHT22;6006;49.696;8.662;2024-03-02T15:36:33;16.80;99.90
11894;DHT22;6006;49.696;8.662;2024-03-02T15:39:01;16.70;99.90
11894;DHT22;6006;49.696;8.662;2024-03-02T15:41:35;16.70;99.90
11894;DHT22;6006;49.696;8.662;2024-03-02T15:44:02;16.30;99.90
11894;DHT22;6006;49.696;8.662;2024-03-02T15:46:29;16.20;99.90
11894;DHT22;6006;49.696;8.662;2024-03-02T15:48:56;15.80;99.90
11894;DHT22;6006;49.696;8.662;2024-03-02T15:51:23;14.90;99.90
11894;DHT22;6006;49.696;8.662;2024-03-02T15:53:50;15.00;99.90
11894;DHT22;6006;49.696;8.662;2024-03-02T15:56:17;15.00;99.90
11894;DHT22;6006;49.696;8.662;2024-03-02T15:58:45;14.60;99.90
11894;DHT22;6006;49.696;8.662;2024-03-02T16:01:12;14.60;99.90
11894;DHT22;6006;49.696;8.662;2024-03-02T16:03:39;14.40;99.90